Time;durP1;ratioP1;P1;durP2;ratioP2;P2;SDS_P1;SDS_P2;PMS_P1;PMS_P2;Temp;Humidity;BMP_temperature;BMP_pressure;BME280_temperature;BME280_humidity;BME280_pressure;Samples;Min_cycle;Max_cycle;Signal;HPM_P1;HPM_P2
2022/07/08 00:01:20;;;;;;;10.77;2.90;;;;;;;15.94;68.11;102990.19;5007389;28;20079;-46
2022/07/08 00:03:45;;;;;;;10.35;2.92;;;;;;;15.91;68.23;102995.34;5003127;28;20026;-47
2022/07/08 00:06:11;;;;;;;9.07;3.00;;;;;;;15.89;68.57;102991.72;5006329;28;20037;-46
2022/07/08 00:08:36;;;;;;;11.25;3.22;;;;;;;15.87;68.83;102985.53;5003820;28;20038;-46
2022/07/08 00:11:01;;;;;;;9.52;3.22;;;;;;;15.87;68.75;102989.06;5008481;28;20109;-46
2022/07/08 00:13:27;;;;;;;8.60;3.10;;;;;;;15.86;68.31;102991.63;5008463;28;20045;-46
2022/07/08 00:15:52;;;;;;;8.57;3.10;;;;;;;15.85;68.42;102997.75;5007325;28;20139;-46
2022/07/08 00:18:17;;;;;;;8.75;3.08;;;;;;;15.84;68.67;102991.56;5007114;28;20030;-46
2022/07/08 00:20:43;;;;;;;8.82;3.40;;;;;;;15.84;69.24;102996.84;5008471;28;20037;-48
2022/07/08 00:23:08;;;;;;;11.57;3.25;;;;;;;15.84;68.98;102998.56;5005942;28;20105;-46
2022/07/08 00:25:33;;;;;;;10.18;3.47;;;;;;;15.81;69.52;102991.47;5012566;28;20030;-46
2022/07/08 00:27:58;;;;;;;11.70;3.40;;;;;;;15.79;69.65;102993.16;5012605;28;20032;-47
2022/07/08 00:30:24;;;;;;;11.05;3.63;;;;;;;15.77;69.84;102987.81;5008714;28;20112;-46
2022/07/08 00:32:49;;;;;;;10.48;3.42;;;;;;;15.75;69.72;102989.47;5010980;28;20041;-45
2022/07/08 00:35:15;;;;;;;10.43;3.40;;;;;;;15.75;69.40;102983.31;5011059;28;20109;-46
2022/07/08 00:37:40;;;;;;;13.13;3.50;;;;;;;15.73;69.58;102991.16;5010699;28;20113;-45
2022/07/08 00:40:06;;;;;;;7.30;3.67;;;;;;;15.72;69.47;102984.09;5011035;28;20108;-46
2022/07/08 00:42:31;;;;;;;11.25;3.80;;;;;;;15.72;68.83;102984.09;5011840;28;20026;-46
2022/07/08 00:44:57;;;;;;;10.93;4.03;;;;;;;15.70;68.94;102998.94;5012344;28;20025;-46
2022/07/08 00:47:22;;;;;;;15.38;3.65;;;;;;;15.66;68.64;102989.16;5011633;28;20034;-47
2022/07/08 00:49:49;;;;;;;11.82;4.00;;;;;;;15.62;68.78;102989.88;5011348;28;20022;-46
2022/07/08 00:52:15;;;;;;;9.18;4.15;;;;;;;15.59;68.86;102987.13;5017212;28;20040;-46
2022/07/08 00:54:41;;;;;;;7.68;3.53;;;;;;;15.54;68.91;102999.19;5012556;28;20022;-46
2022/07/08 00:57:06;;;;;;;10.52;3.70;;;;;;;15.50;68.85;102995.56;5012363;28;20432;-45
2022/07/08 00:59:32;;;;;;;10.57;3.90;;;;;;;15.46;68.76;102996.28;5010578;28;20030;-46
2022/07/08 01:01:57;;;;;;;10.13;3.78;;;;;;;15.41;68.80;102998.72;5009612;28;20397;-45
2022/07/08 01:04:22;;;;;;;12.52;4.18;;;;;;;15.40;69.06;102996.06;5012452;28;20041;-47
2022/07/08 01:06:48;;;;;;;11.60;3.72;;;;;;;15.36;68.78;102995.03;5007987;28;20030;-46
2022/07/08 01:09:16;;;;;;;10.80;4.28;;;;;;;15.33;68.96;102996.66;5010228;28;20061;-46
2022/07/08 01:11:46;;;;;;;13.17;4.20;;;;;;;15.30;69.22;103000.03;5009250;28;20030;-46
2022/07/08 01:14:12;;;;;;;11.98;4.18;;;;;;;15.26;68.90;103003.38;5008894;28;20048;-46
2022/07/08 01:16:37;;;;;;;9.38;4.00;;;;;;;15.24;68.63;102998.06;5009218;28;20036;-55
2022/07/08 01:19:03;;;;;;;13.38;4.55;;;;;;;15.21;69.05;102994.44;5011940;28;20033;-55
2022/07/08 01:21:28;;;;;;;11.57;4.35;;;;;;;15.19;69.16;103003.97;5009072;28;20037;-56
2022/07/08 01:23:53;;;;;;;11.75;3.80;;;;;;;15.16;68.92;102990.72;5008385;28;20096;-56
2022/07/08 01:26:19;;;;;;;11.32;4.25;;;;;;;15.11;69.25;102994.06;5010786;28;20145;-55
2022/07/08 01:28:44;;;;;;;8.80;4.20;;;;;;;15.07;69.13;102997.41;5015968;28;20054;-56
2022/07/08 01:31:09;;;;;;;9.35;4.30;;;;;;;15.06;68.85;102999.97;5007760;28;20026;-56
2022/07/08 01:33:35;;;;;;;10.50;4.22;;;;;;;14.99;68.99;102995.31;5010786;28;20393;-56
2022/07/08 01:36:00;;;;;;;10.95;4.00;;;;;;;14.94;68.92;102996.00;5010823;28;20116;-56
2022/07/08 01:38:26;;;;;;;8.88;3.75;;;;;;;14.90;69.19;102993.22;5011616;28;20029;-56
2022/07/08 01:40:51;;;;;;;11.27;3.80;;;;;;;14.87;69.19;102999.22;5003837;28;20018;-56
2022/07/08 01:43:17;;;;;;;11.70;4.32;;;;;;;14.85;69.19;103000.91;5008856;28;20057;-56
2022/07/08 01:45:43;;;;;;;10.27;4.22;;;;;;;14.80;69.43;103005.06;5009110;28;20052;-56
2022/07/08 01:48:08;;;;;;;8.30;4.07;;;;;;;14.78;69.64;102998.88;5008249;28;20489;-56
2022/07/08 01:50:33;;;;;;;11.90;4.05;;;;;;;14.72;69.50;103001.25;5011557;28;20030;-56
2022/07/08 01:52:59;;;;;;;9.60;4.68;;;;;;;14.69;69.31;102986.25;5008515;28;20030;-55
2022/07/08 01:55:25;;;;;;;8.27;4.00;;;;;;;14.67;69.79;102989.66;5010977;28;20453;-56
2022/07/08 01:57:51;;;;;;;8.93;3.78;;;;;;;14.62;70.04;102992.09;5007600;28;20025;-56
2022/07/08 02:00:16;;;;;;;8.65;4.10;;;;;;;14.58;70.29;102984.88;5009836;28;20036;-56
2022/07/08 02:02:42;;;;;;;9.40;4.07;;;;;;;14.55;70.24;102985.66;5008724;28;20401;-56
2022/07/08 02:05:09;;;;;;;10.93;4.25;;;;;;;14.51;69.75;102994.25;5009431;28;20057;-54
2022/07/08 02:07:35;;;;;;;9.13;4.32;;;;;;;14.49;70.27;102998.50;5006244;28;20026;-55
2022/07/08 02:10:00;;;;;;;11.65;4.20;;;;;;;14.46;70.21;102994.88;5011689;28;20033;-56
2022/07/08 02:12:26;;;;;;;9.93;4.07;;;;;;;14.44;70.12;102998.31;5009706;28;20108;-56
2022/07/08 02:15:03;;;;;;;9.07;4.10;;;;;;;14.40;70.46;103000.75;5008146;28;20088;-55
2022/07/08 02:17:32;;;;;;;9.85;3.92;;;;;;;14.32;70.81;102997.78;5010015;28;20624;-46
2022/07/08 02:20:00;;;;;;;9.80;3.83;;;;;;;14.29;70.89;103000.28;5006718;28;20026;-46
2022/07/08 02:22:26;;;;;;;10.17;4.00;;;;;;;14.25;71.28;102995.72;5008795;28;20026;-50
2022/07/08 02:24:52;;;;;;;7.43;3.97;;;;;;;14.21;71.35;103005.22;5010441;28;20293;-46
2022/07/08 02:27:18;;;;;;;8.75;4.10;;;;;;;14.20;71.48;103008.66;5011247;28;20030;-47
2022/07/08 02:29:44;;;;;;;10.15;4.05;;;;;;;14.18;71.38;103005.06;5009795;28;20166;-46
2022/07/08 02:32:10;;;;;;;9.50;3.95;;;;;;;14.16;71.46;103000.59;5008438;28;20109;-47
2022/07/08 02:34:35;;;;;;;9.20;3.88;;;;;;;14.17;71.53;103003.28;5008206;28;20161;-46
2022/07/08 02:37:01;;;;;;;12.55;4.18;;;;;;;14.14;72.32;103002.25;5009702;28;20501;-46
2022/07/08 02:39:26;;;;;;;10.23;4.00;;;;;;;14.15;72.27;102998.78;5009652;28;20100;-47
2022/07/08 02:41:52;;;;;;;9.38;4.18;;;;;;;14.14;72.32;103004.88;5007615;28;20030;-47
2022/07/08 02:44:18;;;;;;;11.40;4.22;;;;;;;14.11;72.47;103009.97;5004762;28;20069;-47
2022/07/08 02:46:44;;;;;;;10.02;4.05;;;;;;;14.06;73.10;103010.69;5009169;28;20176;-47
2022/07/08 02:49:09;;;;;;;11.38;4.03;;;;;;;14.05;73.18;103002.75;5009480;28;20533;-47
2022/07/08 02:51:35;;;;;;;7.60;3.53;;;;;;;14.02;73.53;103003.50;5009848;28;20026;-46
2022/07/08 02:54:01;;;;;;;12.10;3.90;;;;;;;14.00;73.69;102994.66;5008706;28;20025;-46
2022/07/08 02:56:28;;;;;;;10.25;3.75;;;;;;;13.97;74.00;102991.91;5009681;28;20531;-46
2022/07/08 02:58:53;;;;;;;11.50;4.07;;;;;;;13.98;73.62;102995.44;5009814;28;20117;-46
2022/07/08 03:01:18;;;;;;;9.75;4.22;;;;;;;13.96;73.85;102995.38;5010111;28;20124;-47
2022/07/08 03:03:44;;;;;;;9.00;4.10;;;;;;;13.96;73.58;102995.38;5008074;28;20082;-46
2022/07/08 03:06:09;;;;;;;7.65;4.03;;;;;;;13.94;73.67;103004.00;5008312;28;20073;-47
2022/07/08 03:08:35;;;;;;;7.88;3.40;;;;;;;13.94;73.60;103012.75;5008788;28;20029;-47
2022/07/08 03:11:00;;;;;;;7.60;3.53;;;;;;;13.93;73.49;103008.31;5009724;28;20056;-46
2022/07/08 03:13:25;;;;;;;7.35;3.72;;;;;;;13.90;73.84;103013.44;5007853;28;20452;-46
2022/07/08 03:15:50;;;;;;;14.48;3.80;;;;;;;13.90;73.39;103013.44;5008327;28;20041;-46
2022/07/08 03:18:16;;;;;;;9.43;3.75;;;;;;;13.87;73.57;103008.06;5008896;28;20026;-46
2022/07/08 03:20:41;;;;;;;9.30;3.78;;;;;;;13.87;73.86;103011.56;5006135;28;20111;-46
2022/07/08 03:23:07;;;;;;;12.45;4.10;;;;;;;13.86;73.62;103008.88;5006578;28;20105;-46
2022/07/08 03:25:35;;;;;;;8.93;3.90;;;;;;;13.87;73.62;103003.69;5008204;28;20029;-46
2022/07/08 03:28:01;;;;;;;10.80;3.80;;;;;;;13.88;73.68;103010.75;5003357;28;20039;-47
2022/07/08 03:30:26;;;;;;;10.30;3.72;;;;;;;13.87;73.85;103008.06;5010341;28;20061;-46
2022/07/08 03:32:52;;;;;;;12.43;4.07;;;;;;;13.88;73.80;103004.63;5008433;28;20109;-46
2022/07/08 03:35:18;;;;;;;9.40;3.85;;;;;;;13.88;73.63;103010.75;5009835;28;20489;-46
2022/07/08 03:37:44;;;;;;;11.38;4.10;;;;;;;13.87;73.65;103014.19;5007763;28;20030;-46
2022/07/08 03:42:55;;;;;;;11.57;4.25;;;;;;;13.88;73.41;103013.38;5010133;28;20061;-46
2022/07/08 03:45:20;;;;;;;7.82;4.25;;;;;;;13.87;73.27;103015.94;5008559;28;20670;-46
2022/07/08 03:47:45;;;;;;;9.73;4.10;;;;;;;13.85;73.52;103015.84;5006857;28;20136;-46
2022/07/08 03:50:11;;;;;;;9.43;3.90;;;;;;;13.84;73.34;103014.06;5006397;28;20103;-46
2022/07/08 03:52:37;;;;;;;12.93;4.47;;;;;;;13.83;73.42;103014.00;5005993;28;20022;-47
2022/07/08 03:55:02;;;;;;;16.80;4.18;;;;;;;13.80;73.74;103021.72;5010250;28;20297;-48
2022/07/08 03:57:27;;;;;;;11.57;4.10;;;;;;;13.77;73.60;103016.34;5006922;28;20030;-46
2022/07/08 03:59:53;;;;;;;12.45;4.88;;;;;;;13.76;73.63;103004.97;5014000;28;20029;-46
2022/07/08 04:02:18;;;;;;;11.77;4.18;;;;;;;13.77;73.50;103016.34;5011991;28;20457;-46
2022/07/08 04:04:43;;;;;;;8.70;3.97;;;;;;;13.76;73.53;103012.84;5011517;28;20065;-46
2022/07/08 04:07:09;;;;;;;10.98;4.03;;;;;;;13.76;73.85;103014.53;5010851;28;21241;-47
2022/07/08 04:09:34;;;;;;;12.93;3.95;;;;;;;13.74;73.77;103009.22;5010590;28;20203;-47
2022/07/08 04:11:59;;;;;;;10.20;4.30;;;;;;;13.73;73.71;103016.22;5011046;28;20014;-46
2022/07/08 04:14:24;;;;;;;11.30;4.70;;;;;;;13.72;73.80;103019.63;5010573;28;20052;-46
2022/07/08 04:16:50;;;;;;;9.88;4.20;;;;;;;13.72;73.82;103013.50;5011527;28;20057;-46
2022/07/08 04:19:15;;;;;;;13.15;5.30;;;;;;;13.72;73.96;103024.00;5012009;28;20026;-47
2022/07/08 04:21:40;;;;;;;12.90;4.00;;;;;;;13.70;73.95;103016.06;5010787;28;20087;-46
2022/07/08 04:24:06;;;;;;;11.38;4.38;;;;;;;13.69;73.63;103018.63;5009318;28;20493;-49
2022/07/08 04:26:32;;;;;;;11.30;4.68;;;;;;;13.67;73.83;103013.31;5011389;28;20439;-48
2022/07/08 04:28:58;;;;;;;12.02;5.00;;;;;;;13.66;73.96;103013.25;5012515;28;20034;-48
2022/07/08 04:31:24;;;;;;;9.93;4.60;;;;;;;13.64;74.25;103020.13;5012327;28;20018;-48
2022/07/08 04:33:50;;;;;;;10.68;5.25;;;;;;;13.62;74.29;103017.44;5005778;28;20481;-50
2022/07/08 04:36:15;;;;;;;8.63;4.30;;;;;;;13.61;74.47;103020.88;5009424;28;20026;-46
2022/07/08 04:38:41;;;;;;;9.70;4.45;;;;;;;13.61;74.36;103020.88;5009122;28;20408;-46
2022/07/08 04:41:06;;;;;;;12.23;4.28;;;;;;;13.59;74.81;103025.16;5012371;28;20030;-46
2022/07/08 04:43:32;;;;;;;9.25;4.65;;;;;;;13.59;74.42;103032.13;5008944;28;20045;-47
2022/07/08 04:45:57;;;;;;;12.15;4.30;;;;;;;13.59;74.40;103038.25;5010369;28;20180;-49
2022/07/08 04:48:22;;;;;;;9.88;4.45;;;;;;;13.62;74.63;103040.13;5010427;28;20560;-46
2022/07/08 04:50:48;;;;;;;13.25;4.65;;;;;;;13.62;74.72;103040.13;5010792;28;20026;-47
2022/07/08 04:53:13;;;;;;;12.95;5.00;;;;;;;13.62;74.74;103043.63;5011230;28;20034;-46
2022/07/08 04:55:38;;;;;;;15.32;5.00;;;;;;;13.64;74.57;103048.94;5010809;28;20057;-46
2022/07/08 04:58:04;;;;;;;12.10;4.90;;;;;;;13.66;74.59;103052.53;5010105;28;20022;-48
2022/07/08 05:00:32;;;;;;;12.90;5.03;;;;;;;13.67;74.89;103052.59;5009326;28;20026;-47
2022/07/08 05:02:58;;;;;;;12.18;5.63;;;;;;;13.67;74.76;103050.00;5010032;28;20053;-47
2022/07/08 05:05:24;;;;;;;13.38;5.88;;;;;;;13.68;75.64;103053.50;5007952;28;20510;-48
2022/07/08 05:07:51;;;;;;;11.93;6.13;;;;;;;13.68;75.62;103059.63;4999973;28;20064;-47
2022/07/08 05:10:18;;;;;;;16.20;6.03;;;;;;;13.69;75.48;103058.81;5005346;28;20033;-46
2022/07/08 05:12:44;;;;;;;14.05;6.10;;;;;;;13.68;75.97;103067.47;5008157;28;20034;-47
2022/07/08 05:15:11;;;;;;;13.43;6.22;;;;;;;13.68;76.23;103058.72;5012025;28;20069;-46
2022/07/08 05:17:36;;;;;;;19.17;6.38;;;;;;;13.66;77.04;103056.03;5009514;28;20026;-46
2022/07/08 05:20:02;;;;;;;14.95;6.93;;;;;;;13.68;76.74;103062.25;5016366;28;20021;-46
2022/07/08 05:22:27;;;;;;;15.70;6.90;;;;;;;13.69;76.85;103064.03;5008504;28;20088;-46
2022/07/08 05:24:52;;;;;;;14.93;6.60;;;;;;;13.72;77.19;103071.16;5012124;28;20034;-46
2022/07/08 05:27:18;;;;;;;14.32;6.40;;;;;;;13.71;77.17;103067.63;5008865;28;20042;-46
2022/07/08 05:29:43;;;;;;;13.10;6.03;;;;;;;13.73;77.32;103068.59;5014416;28;20481;-47
2022/07/08 05:32:08;;;;;;;14.30;7.10;;;;;;;13.76;77.27;103078.34;5007869;28;20034;-46
2022/07/08 05:34:33;;;;;;;15.13;7.07;;;;;;;13.78;76.69;103081.03;5009099;28;20104;-46
2022/07/08 05:36:59;;;;;;;17.05;6.88;;;;;;;13.78;77.48;103081.03;5010571;28;20079;-45
2022/07/08 05:39:24;;;;;;;15.30;6.82;;;;;;;13.81;77.49;103083.78;5009399;28;20049;-47
2022/07/08 05:41:51;;;;;;;11.52;6.75;;;;;;;13.83;77.87;103079.50;5012248;28;20037;-47
2022/07/08 05:44:17;;;;;;;15.90;6.28;;;;;;;13.85;77.53;103083.09;5010881;28;20110;-46
2022/07/08 05:46:43;;;;;;;16.55;6.88;;;;;;;13.87;77.64;103084.06;5011102;28;20030;-46
2022/07/08 05:49:08;;;;;;;13.93;5.93;;;;;;;13.90;78.01;103086.81;5007766;28;20038;-46
2022/07/08 05:51:34;;;;;;;17.38;6.13;;;;;;;13.91;77.72;103084.25;5008858;28;20068;-46
2022/07/08 05:53:59;;;;;;;14.10;6.55;;;;;;;13.96;78.04;103087.13;5006382;28;20022;-47
2022/07/08 05:56:24;;;;;;;16.13;6.35;;;;;;;13.99;77.94;103091.59;5008752;28;20053;-47
2022/07/08 05:58:50;;;;;;;14.90;6.57;;;;;;;14.04;78.21;103092.72;5010159;28;20075;-46
2022/07/08 06:01:15;;;;;;;16.27;6.60;;;;;;;14.08;78.20;103090.28;5010000;28;20113;-46
2022/07/08 06:03:40;;;;;;;14.05;6.70;;;;;;;14.13;78.27;103097.47;5010540;28;20029;-46
2022/07/08 06:06:06;;;;;;;18.92;6.53;;;;;;;14.18;78.30;103104.72;5004680;28;20053;-46
2022/07/08 06:08:31;;;;;;;14.05;6.28;;;;;;;14.25;77.75;103103.25;5010600;28;20034;-46
2022/07/08 06:10:56;;;;;;;15.05;5.78;;;;;;;14.32;78.04;103102.69;5001868;28;20113;-47
2022/07/08 06:13:22;;;;;;;11.77;5.72;;;;;;;14.37;77.83;103101.19;5004680;28;20056;-47
2022/07/08 06:15:47;;;;;;;17.27;5.47;;;;;;;14.43;77.13;103101.44;5008348;28;20030;-47
2022/07/08 06:18:13;;;;;;;12.13;5.07;;;;;;;14.50;77.56;103102.63;5016438;28;20059;-46
2022/07/08 06:20:38;;;;;;;18.75;5.90;;;;;;;14.58;77.42;103100.31;5013140;28;20379;-47
2022/07/08 06:23:04;;;;;;;14.32;5.70;;;;;;;14.65;77.03;103107.66;5008013;28;20559;-47
2022/07/08 06:25:29;;;;;;;11.00;5.13;;;;;;;14.74;76.59;103115.03;5010651;28;20117;-48
2022/07/08 06:27:54;;;;;;;14.48;6.03;;;;;;;14.82;77.49;103111.03;5011571;28;20026;-46
2022/07/08 06:30:19;;;;;;;21.42;5.97;;;;;;;14.89;76.52;103114.81;5005782;28;20464;-47
2022/07/08 06:32:45;;;;;;;16.98;5.72;;;;;;;14.94;76.05;103106.28;5019680;28;20056;-49
2022/07/08 06:35:11;;;;;;;14.02;4.90;;;;;;;15.02;76.31;103109.25;5009764;28;20037;-46
2022/07/08 06:37:37;;;;;;;15.15;3.95;;;;;;;15.09;75.62;103103.41;5010378;28;20464;-46
2022/07/08 06:40:03;;;;;;;9.13;3.42;;;;;;;15.15;74.28;103105.41;5008498;28;20021;-45
2022/07/08 06:42:28;;;;;;;10.15;3.72;;;;;;;15.22;74.69;103101.28;5012731;28;20507;-47
2022/07/08 06:44:53;;;;;;;13.32;4.05;;;;;;;15.29;75.07;103096.34;5007106;28;20405;-46
2022/07/08 06:47:21;;;;;;;10.32;3.50;;;;;;;15.35;75.26;103106.22;5008712;28;20304;-45
2022/07/08 06:49:46;;;;;;;10.55;3.40;;;;;;;15.42;75.51;103105.59;5007975;28;20036;-49
2022/07/08 06:52:12;;;;;;;11.57;3.58;;;;;;;15.46;73.60;103102.25;5015733;28;20030;-46
2022/07/08 06:54:37;;;;;;;10.20;3.00;;;;;;;15.54;73.21;103117.44;5010429;28;20044;-47
2022/07/08 06:57:05;;;;;;;12.80;3.40;;;;;;;15.61;74.06;103111.56;5006426;28;20469;-46
2022/07/08 06:59:30;;;;;;;10.40;3.40;;;;;;;15.66;73.85;103112.66;5003714;28;20030;-50
2022/07/08 07:01:55;;;;;;;14.77;5.00;;;;;;;15.74;73.89;103108.63;5007912;28;20033;-48
2022/07/08 07:04:21;;;;;;;10.40;3.50;;;;;;;15.82;75.51;103109.81;5002571;28;20217;-47
2022/07/08 07:06:47;;;;;;;13.30;3.90;;;;;;;15.91;72.80;103111.00;5005595;28;20034;-48
2022/07/08 07:09:13;;;;;;;11.43;3.45;;;;;;;15.98;73.08;103110.41;5006864;28;20026;-46
2022/07/08 07:11:39;;;;;;;12.05;3.90;;;;;;;16.05;73.31;103109.81;5002030;28;20069;-46
2022/07/08 07:14:05;;;;;;;8.52;3.42;;;;;;;16.10;71.80;103115.22;5001065;28;20052;-47
2022/07/08 07:16:30;;;;;;;8.68;3.33;;;;;;;16.17;72.54;103115.50;5001210;28;20520;-47
2022/07/08 07:18:56;;;;;;;10.32;3.08;;;;;;;16.25;72.07;103118.44;5001129;28;20506;-48
2022/07/08 07:21:21;;;;;;;9.77;3.03;;;;;;;16.32;71.53;103116.91;5000943;28;20036;-46
2022/07/08 07:23:46;;;;;;;11.88;3.42;;;;;;;16.37;72.25;103110.09;5004563;28;20501;-46
2022/07/08 07:26:12;;;;;;;12.60;3.45;;;;;;;16.41;71.88;103119.88;5001001;28;20189;-46
2022/07/08 07:28:37;;;;;;;10.38;3.10;;;;;;;16.47;71.83;103113.94;5002417;28;20022;-46
2022/07/08 07:31:02;;;;;;;11.50;3.58;;;;;;;16.55;71.74;103119.47;5002958;28;20033;-47
2022/07/08 07:33:28;;;;;;;10.27;3.00;;;;;;;16.60;72.23;103124.06;5001189;28;20033;-46
2022/07/08 07:35:53;;;;;;;11.13;3.50;;;;;;;16.68;71.40;103113.78;5005560;28;20163;-45
2022/07/08 07:38:19;;;;;;;11.10;3.72;;;;;;;16.69;71.27;103121.75;5000047;28;20456;-46
2022/07/08 07:40:44;;;;;;;11.30;3.30;;;;;;;16.73;70.56;103112.22;5003908;28;20052;-47
2022/07/08 07:43:09;;;;;;;15.85;3.60;;;;;;;16.80;71.68;103108.97;4999658;28;20030;-47
2022/07/08 07:45:35;;;;;;;9.57;3.92;;;;;;;16.89;71.26;103110.13;5016414;28;20079;-46
2022/07/08 07:48:00;;;;;;;10.18;3.60;;;;;;;16.92;70.61;103107.63;5010273;28;20026;-47
2022/07/08 07:50:26;;;;;;;11.55;3.67;;;;;;;17.01;70.93;103110.56;5008512;28;20128;-46
2022/07/08 07:52:52;;;;;;;12.18;3.90;;;;;;;17.06;69.70;103111.63;5009116;28;20033;-46
2022/07/08 07:55:18;;;;;;;11.38;3.40;;;;;;;17.13;70.02;103110.97;5006639;28;20179;-46
2022/07/08 07:57:46;;;;;;;13.13;4.05;;;;;;;17.17;68.41;103112.84;5005795;28;20116;-49
2022/07/08 08:00:13;;;;;;;11.82;3.72;;;;;;;17.20;68.89;103110.31;5006348;28;20030;-47
2022/07/08 08:02:39;;;;;;;13.20;3.95;;;;;;;17.26;68.95;103101.72;5006477;28;20072;-46
2022/07/08 08:05:05;;;;;;;11.38;3.70;;;;;;;17.30;69.85;103103.59;5007377;28;20120;-47
2022/07/08 08:07:30;;;;;;;10.27;3.28;;;;;;;17.40;70.52;103106.53;5005567;28;20121;-47
2022/07/08 08:09:56;;;;;;;9.43;3.50;;;;;;;17.48;70.54;103116.47;5008338;28;20030;-47
2022/07/08 08:12:21;;;;;;;12.98;3.53;;;;;;;17.53;69.33;103114.88;5001362;28;20670;-47
2022/07/08 08:14:46;;;;;;;11.73;3.80;;;;;;;17.56;68.69;103112.31;5006881;28;20045;-45
2022/07/08 08:17:12;;;;;;;11.18;3.80;;;;;;;17.59;68.67;103108.00;5008440;28;20771;-47
2022/07/08 08:19:37;;;;;;;14.80;4.18;;;;;;;17.64;68.10;103111.66;5018669;28;20037;-47
2022/07/08 08:22:02;;;;;;;17.05;4.30;;;;;;;17.71;68.71;103114.56;5009774;28;20422;-47
2022/07/08 08:24:28;;;;;;;9.45;3.97;;;;;;;17.75;68.66;103107.63;5024809;28;20029;-47
2022/07/08 08:26:53;;;;;;;15.80;3.75;;;;;;;17.85;67.81;103107.03;5011191;28;20100;-47
2022/07/08 08:29:19;;;;;;;9.30;2.90;;;;;;;17.90;68.53;103120.41;5009235;28;20034;-47
2022/07/08 08:31:44;;;;;;;9.25;3.75;;;;;;;17.95;68.55;103117.91;5007812;28;20050;-48
2022/07/08 08:34:09;;;;;;;12.65;4.43;;;;;;;18.04;68.04;103113.78;5008564;28;20064;-47
2022/07/08 08:36:35;;;;;;;12.13;3.65;;;;;;;18.14;69.00;103121.97;5008057;28;20053;-47
2022/07/08 08:39:00;;;;;;;13.32;3.60;;;;;;;18.19;69.01;103123.91;5006851;28;20462;-46
2022/07/08 08:41:27;;;;;;;12.63;4.30;;;;;;;18.23;68.15;103117.88;5007862;28;20116;-47
2022/07/08 08:43:52;;;;;;;14.50;4.20;;;;;;;18.30;68.06;103112.75;5007300;28;20026;-48
2022/07/08 08:46:22;;;;;;;12.93;4.93;;;;;;;18.34;67.15;103114.63;5010902;28;20493;-46
2022/07/08 08:48:48;;;;;;;13.98;4.50;;;;;;;18.46;70.20;103111.44;5009959;28;20037;-48
2022/07/08 08:51:20;;;;;;;15.68;4.55;;;;;;;18.56;69.00;103114.34;5011264;28;20083;-46
2022/07/08 08:53:46;;;;;;;9.82;3.60;;;;;;;18.58;63.90;103111.75;5000992;28;20048;-48
2022/07/08 08:56:13;;;;;;;8.25;3.22;;;;;;;18.59;63.75;103113.53;5013367;28;20030;-46
2022/07/08 08:58:40;;;;;;;12.60;3.28;;;;;;;18.66;65.33;103104.06;5011337;28;20026;-46
2022/07/08 09:01:07;;;;;;;11.68;3.55;;;;;;;18.74;64.55;103100.75;5012933;28;20073;-47
2022/07/08 09:03:32;;;;;;;14.23;3.70;;;;;;;18.83;64.60;103097.44;5011935;28;20030;-47
2022/07/08 09:05:58;;;;;;;11.07;3.08;;;;;;;18.90;65.09;103101.16;5011556;28;20104;-46
2022/07/08 09:08:23;;;;;;;9.27;2.97;;;;;;;18.96;64.57;103097.78;5010701;28;20063;-50
2022/07/08 09:10:48;;;;;;;8.90;3.03;;;;;;;19.04;63.83;103098.88;5009566;28;20512;-46
2022/07/08 09:13:15;;;;;;;15.35;3.72;;;;;;;19.06;63.53;103098.06;5012020;28;20026;-46
2022/07/08 09:15:44;;;;;;;10.73;3.10;;;;;;;19.09;61.75;103094.59;5011341;28;20040;-46
2022/07/08 09:18:18;;;;;;;10.75;3.25;;;;;;;19.16;64.15;103099.19;5011997;28;20084;-46
2022/07/08 09:20:52;;;;;;;7.10;3.30;;;;;;;19.23;61.20;103094.91;5012764;28;20025;-46
2022/07/08 09:23:31;;;;;;;10.60;3.35;;;;;;;19.31;60.95;103089.84;5010807;28;20778;-46
2022/07/08 09:26:05;;;;;;;13.55;3.65;;;;;;;19.35;60.81;103091.66;5007507;28;20021;-46
2022/07/08 09:28:34;;;;;;;8.65;3.50;;;;;;;19.41;61.77;103097.13;5004732;28;20120;-46
2022/07/08 09:31:03;;;;;;;8.63;3.20;;;;;;;19.42;62.22;103097.16;5011623;28;20038;-46
2022/07/08 09:33:28;;;;;;;7.68;2.78;;;;;;;19.50;62.39;103094.66;5011379;28;20112;-46
2022/07/08 09:36:00;;;;;;;8.68;2.78;;;;;;;19.55;63.52;103100.97;5012027;28;20509;-47
2022/07/08 09:38:27;;;;;;;9.23;3.00;;;;;;;19.61;61.32;103095.81;5012262;28;20042;-46
2022/07/08 09:41:03;;;;;;;11.68;2.88;;;;;;;19.63;62.63;103088.78;5012237;28;20028;-47
2022/07/08 09:43:29;;;;;;;12.15;3.20;;;;;;;19.66;59.53;103087.09;5011266;28;20025;-46
2022/07/08 09:45:54;;;;;;;10.32;3.10;;;;;;;19.66;58.92;103082.69;5011602;28;20112;-46
2022/07/08 09:48:23;;;;;;;9.73;2.90;;;;;;;19.71;60.64;103086.31;5009695;28;20168;-46
2022/07/08 09:50:49;;;;;;;12.10;3.88;;;;;;;19.79;60.28;103095.34;5011827;28;20429;-47
2022/07/08 09:53:20;;;;;;;11.60;3.72;;;;;;;19.89;61.04;103096.44;5011055;28;20045;-47
2022/07/08 09:55:50;;;;;;;8.52;2.70;;;;;;;20.01;62.91;103089.59;5001198;28;20030;-47
2022/07/08 09:58:16;;;;;;;11.85;3.60;;;;;;;20.11;64.11;103095.09;5010932;28;20033;-56
2022/07/08 10:00:43;;;;;;;13.05;3.42;;;;;;;20.19;61.38;103097.00;5012105;28;20022;-56
2022/07/08 10:03:09;;;;;;;9.40;3.30;;;;;;;20.23;60.79;103090.91;5012076;28;20157;-56
2022/07/08 10:05:34;;;;;;;8.55;3.08;;;;;;;20.27;60.15;103095.41;5011966;28;20046;-56
2022/07/08 10:08:00;;;;;;;9.15;3.10;;;;;;;20.28;61.68;103098.09;5011275;28;20037;-56
2022/07/08 10:10:26;;;;;;;10.30;3.17;;;;;;;20.31;60.00;103092.84;5010748;28;20022;-57
2022/07/08 10:12:59;;;;;;;10.88;3.33;;;;;;;20.38;60.93;103099.16;5011288;28;20041;-55
2022/07/08 10:15:28;;;;;;;10.73;3.25;;;;;;;20.42;60.51;103098.38;5010739;28;20026;-56
2022/07/08 10:17:59;;;;;;;6.43;2.60;;;;;;;20.50;59.32;103096.72;5010831;28;20061;-56
2022/07/08 10:20:31;;;;;;;7.97;2.35;;;;;;;20.55;61.09;103102.13;5010716;28;20623;-56
2022/07/08 10:23:01;;;;;;;9.57;3.05;;;;;;;20.56;57.91;103103.91;5010752;28;20022;-56
2022/07/08 10:25:27;;;;;;;9.10;2.92;;;;;;;20.59;58.82;103098.66;5010806;28;20025;-56
2022/07/08 10:28:02;;;;;;;11.48;3.28;;;;;;;20.71;60.84;103099.78;5017829;28;20096;-46
2022/07/08 10:30:32;;;;;;;10.52;3.25;;;;;;;20.86;61.87;103099.16;5012777;28;20129;-46
2022/07/08 10:33:01;;;;;;;6.05;2.78;;;;;;;20.97;61.74;103093.19;5013476;28;20029;-48
2022/07/08 10:35:27;;;;;;;8.40;3.13;;;;;;;21.11;60.22;103095.16;5014368;28;20068;-48
2022/07/08 10:37:58;;;;;;;8.02;2.95;;;;;;;21.24;59.59;103093.56;5007975;28;20057;-48
2022/07/08 10:40:42;;;;;;;8.80;3.00;;;;;;;21.33;60.05;103078.72;5010353;28;20501;-50
2022/07/08 10:43:19;;;;;;;8.30;4.05;;;;;;;21.42;60.02;103091.22;5007498;28;20059;-47
2022/07/08 10:46:17;;;;;;;10.25;3.47;;;;;;;21.50;61.18;103084.22;5004270;28;20088;-47
2022/07/08 10:48:45;;;;;;;10.50;3.90;;;;;;;21.62;60.16;103080.00;5011008;28;20504;-47
2022/07/08 10:51:25;;;;;;;9.87;3.73;;;;;;;21.69;60.59;103079.22;5007486;28;20029;-47
2022/07/08 10:53:50;;;;;;;8.60;3.20;;;;;;;21.82;61.89;103074.94;5008609;28;20116;-47
2022/07/08 10:56:58;;;;;;;8.43;2.90;;;;;;;21.90;59.64;103078.59;5009362;28;20600;-46
2022/07/08 10:59:26;;;;;;;7.15;2.97;;;;;;;22.03;59.96;103087.59;4995455;28;20354;-47
2022/07/08 11:01:55;;;;;;;11.48;3.33;;;;;;;22.08;57.92;103083.22;5009459;28;20029;-47
2022/07/08 11:04:25;;;;;;;7.85;3.00;;;;;;;22.17;59.82;103086.00;5009710;28;20042;-47
2022/07/08 11:06:50;;;;;;;6.97;3.30;;;;;;;22.30;59.53;103079.03;5010502;28;20042;-49
2022/07/08 11:09:17;;;;;;;8.30;3.00;;;;;;;22.44;59.57;103084.53;5009687;28;20080;-47
2022/07/08 11:11:46;;;;;;;9.02;3.55;;;;;;;22.48;56.38;103086.34;5009866;28;20111;-50
2022/07/08 11:14:13;;;;;;;11.60;4.00;;;;;;;22.56;56.34;103087.31;5018043;28;20087;-50
2022/07/08 11:16:38;;;;;;;11.43;3.90;;;;;;;22.59;57.35;103081.09;5015841;28;20175;-51
2022/07/08 11:19:07;;;;;;;9.98;3.40;;;;;;;22.59;57.30;103078.44;5009809;28;20482;-47